Time;durP1;ratioP1;P1;durP2;ratioP2;P2;SDS_P1;SDS_P2;PMS_P1;PMS_P2;Temp;Humidity;BMP_temperature;BMP_pressure;BME280_temperature;BME280_humidity;BME280_pressure;Samples;Min_cycle;Max_cycle;Signal;HPM_P1;HPM_P2
2022/05/15 00:02:10;;;;;;;7.40;2.67;;;;;;;14.77;42.01;98397.03;5015538;28;20573;-56
2022/05/15 00:04:41;;;;;;;8.37;2.63;;;;;;;14.69;42.98;98423.78;5004855;28;20062;-57
2022/05/15 00:07:11;;;;;;;5.87;2.33;;;;;;;14.58;39.78;98416.59;5000657;28;20289;-57
2022/05/15 00:09:42;;;;;;;8.73;2.43;;;;;;;14.49;39.31;98426.78;5000473;28;20296;-57
2022/05/15 00:12:13;;;;;;;4.57;2.20;;;;;;;14.38;40.15;98437.97;5000520;28;20364;-57
2022/05/15 00:14:46;;;;;;;7.53;3.40;;;;;;;14.46;41.80;98425.19;5002818;28;20301;-57
2022/05/15 00:17:16;;;;;;;4.80;2.60;;;;;;;14.59;42.55;98436.66;5007521;28;20333;-57
2022/05/15 00:19:47;;;;;;;7.23;2.90;;;;;;;14.79;42.14;98432.78;5018324;28;20583;-57
2022/05/15 00:22:18;;;;;;;8.67;2.80;;;;;;;14.89;42.29;98412.03;5031425;28;20284;-57
2022/05/15 00:24:48;;;;;;;7.53;2.50;;;;;;;14.87;39.23;98448.09;5039696;28;20323;-57
2022/05/15 00:27:19;;;;;;;7.87;2.40;;;;;;;14.80;38.49;98438.88;5036245;28;20284;-57
2022/05/15 00:29:51;;;;;;;5.50;2.80;;;;;;;14.77;41.09;98444.34;5018106;28;20607;-57
2022/05/15 00:32:22;;;;;;;8.53;2.80;;;;;;;14.94;40.64;98438.88;5020005;28;20325;-57
2022/05/15 00:34:52;;;;;;;9.03;2.43;;;;;;;14.88;39.67;98457.69;5019811;28;20324;-57
2022/05/15 00:37:23;;;;;;;8.43;2.73;;;;;;;14.69;37.64;98457.13;5019874;28;20285;-57
2022/05/15 00:39:54;;;;;;;4.03;2.63;;;;;;;14.58;39.28;98456.03;5019761;28;20566;-57
2022/05/15 00:42:24;;;;;;;7.70;2.30;;;;;;;14.57;39.39;98462.19;5019605;28;20321;-58
2022/05/15 00:44:57;;;;;;;7.50;2.60;;;;;;;14.54;38.96;98474.69;5018941;28;20307;-57
2022/05/15 00:47:28;;;;;;;5.20;2.10;;;;;;;14.46;37.17;98473.34;5019547;28;20300;-57
2022/05/15 00:49:59;;;;;;;6.70;2.40;;;;;;;14.35;37.77;98467.03;5019719;28;20285;-57
2022/05/15 00:52:33;;;;;;;6.80;2.70;;;;;;;14.33;38.94;98482.06;5019350;28;20308;-57
2022/05/15 00:55:08;;;;;;;9.17;3.03;;;;;;;13.80;38.55;98411.66;5019667;28;20610;-57
2022/05/15 00:57:47;;;;;;;5.80;2.77;;;;;;;13.50;37.90;98376.69;5019840;28;20323;-57
2022/05/15 01:00:23;;;;;;;3.90;2.00;;;;;;;14.21;38.24;98488.91;5019291;28;20300;-57
2022/05/15 01:02:59;;;;;;;7.13;2.33;;;;;;;14.33;40.09;98497.84;5019324;28;20122;-56
2022/05/15 01:05:30;;;;;;;5.77;2.50;;;;;;;14.50;40.80;98489.75;5019161;28;20348;-57
2022/05/15 01:08:01;;;;;;;5.80;2.57;;;;;;;14.41;38.52;98500.84;5019220;28;20380;-57
2022/05/15 01:10:32;;;;;;;12.50;3.10;;;;;;;14.20;39.33;98493.31;5018985;28;20305;-57
2022/05/15 01:13:02;;;;;;;6.10;2.80;;;;;;;14.40;40.26;98501.75;5016371;28;20320;-57
2022/05/15 01:15:36;;;;;;;6.30;2.60;;;;;;;14.60;38.48;98504.09;5008152;28;20073;-57
2022/05/15 01:18:08;;;;;;;5.20;2.50;;;;;;;14.63;38.12;98511.78;4999164;28;20526;-57
2022/05/15 01:20:40;;;;;;;5.27;2.63;;;;;;;14.48;36.79;98515.31;4999326;28;20293;-57
2022/05/15 01:23:13;;;;;;;7.83;2.40;;;;;;;14.43;39.81;98493.72;5018501;28;20317;-57
2022/05/15 01:25:43;;;;;;;6.37;2.97;;;;;;;14.47;39.28;98505.72;5019559;28;20304;-57
2022/05/15 01:28:18;;;;;;;6.67;2.50;;;;;;;14.26;37.70;98512.28;5019102;28;20316;-57
2022/05/15 01:30:51;;;;;;;5.67;2.40;;;;;;;14.07;37.36;98497.56;5013978;28;20620;-57
2022/05/15 01:33:23;;;;;;;5.17;2.57;;;;;;;14.28;39.92;98469.22;5014125;28;20653;-57
2022/05/15 01:35:53;;;;;;;7.33;3.40;;;;;;;14.78;40.00;98531.03;5012435;28;20283;-57
2022/05/15 01:38:26;;;;;;;10.13;3.63;;;;;;;15.13;39.07;98545.56;5018658;28;20544;-56
2022/05/15 01:40:56;;;;;;;5.90;3.23;;;;;;;15.12;36.43;98538.59;5018429;28;20364;-57
2022/05/15 01:43:27;;;;;;;8.10;4.37;;;;;;;15.18;38.08;98543.50;5012342;28;20546;-57
2022/05/15 01:45:58;;;;;;;6.57;2.93;;;;;;;15.18;36.53;98541.72;5004107;28;20344;-59
2022/05/15 01:48:31;;;;;;;6.03;3.00;;;;;;;14.81;38.54;98514.22;4998769;28;20289;-57
2022/05/15 01:51:02;;;;;;;6.83;3.20;;;;;;;15.04;38.88;98537.28;5001601;28;20300;-56
2022/05/15 01:53:34;;;;;;;5.20;2.77;;;;;;;15.33;39.56;98537.28;5016811;28;20300;-58
2022/05/15 01:56:06;;;;;;;6.07;2.50;;;;;;;15.45;36.49;98541.75;5013663;28;20317;-57
2022/05/15 01:58:37;;;;;;;9.50;2.43;;;;;;;15.31;37.95;98560.19;5018395;28;20296;-56
2022/05/15 02:01:07;;;;;;;8.10;2.03;;;;;;;15.07;36.68;98555.50;5018179;28;20876;-57
2022/05/15 02:03:38;;;;;;;3.97;2.23;;;;;;;14.99;36.86;98560.41;5018056;28;20486;-57
2022/05/15 02:06:09;;;;;;;3.97;2.43;;;;;;;15.15;37.89;98559.44;5017557;28;20289;-57
2022/05/15 02:08:42;;;;;;;5.43;2.10;;;;;;;15.44;40.10;98565.53;5015587;28;20329;-56
2022/05/15 02:11:13;;;;;;;9.23;2.10;;;;;;;15.63;37.47;98554.69;5009461;28;20643;-57
2022/05/15 02:13:44;;;;;;;5.23;2.63;;;;;;;15.73;36.66;98558.44;4998446;28;20288;-57
2022/05/15 02:16:14;;;;;;;5.87;2.20;;;;;;;15.45;36.60;98565.44;4998707;28;20336;-56
2022/05/15 02:18:45;;;;;;;4.03;1.93;;;;;;;15.46;35.33;98564.50;4998503;28;20300;-56
2022/05/15 02:21:16;;;;;;;7.53;2.57;;;;;;;15.50;35.74;98576.53;5006735;28;20401;-58
2022/05/15 02:23:48;;;;;;;3.50;2.47;;;;;;;15.29;34.07;98567.34;5017909;28;20287;-56
2022/05/15 02:26:19;;;;;;;7.57;2.30;;;;;;;15.12;35.24;98559.66;5017566;28;20313;-59
2022/05/15 02:28:49;;;;;;;4.67;3.17;;;;;;;15.04;35.70;98547.81;5017581;28;20312;-58
2022/05/15 02:31:20;;;;;;;8.17;3.30;;;;;;;15.22;36.57;98566.03;5017626;28;20308;-57
2022/05/15 02:33:51;;;;;;;10.43;3.00;;;;;;;15.44;36.34;98563.72;5017705;28;20292;-57
2022/05/15 02:36:21;;;;;;;3.60;2.13;;;;;;;15.50;36.90;98563.38;5017611;28;20351;-57
2022/05/15 02:38:54;;;;;;;4.60;2.47;;;;;;;15.73;38.70;98555.81;5017593;28;20285;-58
2022/05/15 02:41:24;;;;;;;4.60;2.00;;;;;;;16.04;36.64;98578.34;5017622;28;20324;-58
2022/05/15 02:43:55;;;;;;;4.63;2.03;;;;;;;16.19;36.79;98573.84;5017370;28;20422;-58
2022/05/15 02:46:25;;;;;;;8.33;3.00;;;;;;;16.29;37.47;98553.84;5017347;28;20303;-58
2022/05/15 02:51:46;;;;;;;3.27;1.90;;;;;;;16.58;33.93;98572.13;5018281;28;20347;-58
2022/05/15 02:54:19;;;;;;;2.90;1.87;;;;;;;16.58;35.46;98572.13;5023334;28;20376;-57
2022/05/15 02:56:50;;;;;;;11.07;2.37;;;;;;;16.63;36.04;98572.66;5014880;28;20297;-58
2022/05/15 02:59:21;;;;;;;5.17;1.97;;;;;;;16.71;34.21;98580.88;5011016;28;20335;-58
2022/05/15 03:01:51;;;;;;;5.63;2.17;;;;;;;16.84;35.22;98580.09;5008294;28;20309;-58
2022/05/15 03:04:22;;;;;;;4.17;2.43;;;;;;;16.87;34.81;98574.59;5001310;28;20570;-58
2022/05/15 03:06:53;;;;;;;3.73;2.10;;;;;;;16.92;33.65;98578.59;5015244;28;20344;-58
2022/05/15 03:09:25;;;;;;;5.97;1.80;;;;;;;16.88;34.49;98581.56;4997556;28;20305;-58
2022/05/15 03:11:56;;;;;;;4.03;1.90;;;;;;;16.87;34.90;98577.22;4997511;28;20284;-57
2022/05/15 03:14:27;;;;;;;2.23;1.67;;;;;;;17.00;35.00;98596.56;4997723;28;20532;-57
2022/05/15 03:16:57;;;;;;;4.27;2.30;;;;;;;17.01;34.90;98571.84;4997527;28;20294;-59
2022/05/15 03:19:28;;;;;;;7.43;2.00;;;;;;;16.91;33.91;98589.25;4997475;28;20285;-57
2022/05/15 03:21:59;;;;;;;3.87;2.13;;;;;;;16.80;34.94;98585.56;4997529;28;20285;-58
2022/05/15 03:24:31;;;;;;;5.70;1.80;;;;;;;16.77;34.89;98601.59;4997368;28;20369;-57
2022/05/15 03:27:02;;;;;;;6.53;2.30;;;;;;;16.71;34.44;98586.16;4997721;28;20295;-57
2022/05/15 03:29:33;;;;;;;4.40;1.80;;;;;;;16.69;35.00;98597.75;4997971;28;20296;-57
2022/05/15 03:32:03;;;;;;;4.73;1.90;;;;;;;16.81;34.63;98594.31;4997611;28;20289;-58
2022/05/15 03:34:34;;;;;;;6.60;1.90;;;;;;;16.79;32.73;98612.03;4997717;28;20288;-58
2022/05/15 03:37:05;;;;;;;2.80;1.77;;;;;;;16.79;34.64;98607.59;4997340;28;20349;-58
2022/05/15 03:39:38;;;;;;;5.00;1.60;;;;;;;16.81;33.08;98602.25;4997399;28;20278;-58
2022/05/15 03:42:09;;;;;;;3.83;2.03;;;;;;;16.78;33.92;98603.28;4997279;28;20293;-58
2022/05/15 03:44:40;;;;;;;4.23;1.60;;;;;;;16.83;32.71;98612.69;4997311;28;20364;-58
2022/05/15 03:47:11;;;;;;;6.60;1.77;;;;;;;16.78;33.03;98611.22;4997283;28;20300;-57
2022/05/15 03:49:41;;;;;;;6.23;2.33;;;;;;;16.68;33.25;98596.94;4997243;28;20294;-58
2022/05/15 03:52:12;;;;;;;5.47;2.03;;;;;;;16.73;32.97;98599.25;4997095;28;20285;-57
2022/05/15 03:54:45;;;;;;;8.20;2.03;;;;;;;16.31;30.18;98546.69;4997342;28;20289;-58
2022/05/15 03:57:15;;;;;;;3.97;1.80;;;;;;;16.36;31.39;98597.28;4997393;28;20344;-58
2022/05/15 03:59:46;;;;;;;9.57;3.73;;;;;;;16.33;31.72;98608.06;5007244;28;20301;-58
2022/05/15 04:02:17;;;;;;;3.20;1.97;;;;;;;16.10;33.42;98600.78;5010503;28;20282;-58
2022/05/15 04:04:48;;;;;;;12.13;5.30;;;;;;;16.02;33.79;98603.94;5012804;28;20511;-57
2022/05/15 04:07:18;;;;;;;5.87;3.00;;;;;;;16.27;32.99;98603.16;5012805;28;20535;-57
2022/05/15 04:09:51;;;;;;;5.47;2.50;;;;;;;16.47;33.65;98608.91;5010447;28;20303;-57
2022/05/15 04:12:22;;;;;;;6.33;2.30;;;;;;;16.61;33.29;98614.09;5011858;28;20595;-57
2022/05/15 04:14:53;;;;;;;3.97;2.33;;;;;;;16.57;30.43;98604.72;5012594;28;20352;-57
2022/05/15 04:17:23;;;;;;;8.63;2.70;;;;;;;16.63;31.60;98614.03;5011766;28;20991;-57
2022/05/15 04:19:54;;;;;;;9.33;3.13;;;;;;;16.68;33.58;98612.75;5013537;28;20300;-57
2022/05/15 04:22:25;;;;;;;8.67;3.70;;;;;;;16.69;31.55;98619.69;5015876;28;20360;-57
2022/05/15 04:24:57;;;;;;;6.80;3.77;;;;;;;16.69;31.65;98598.59;5016036;28;20336;-57
2022/05/15 04:27:28;;;;;;;15.03;7.93;;;;;;;16.79;32.92;98618.16;5015770;28;20316;-57
2022/05/15 04:29:59;;;;;;;13.07;5.00;;;;;;;16.73;32.47;98592.19;5015870;28;20283;-57
2022/05/15 04:32:29;;;;;;;9.23;4.57;;;;;;;16.87;30.83;98622.06;5016028;28;20292;-57
2022/05/15 04:35:00;;;;;;;8.60;3.80;;;;;;;16.92;33.42;98610.25;5016261;28;20295;-57
2022/05/15 04:37:33;;;;;;;6.57;2.50;;;;;;;16.94;32.78;98623.34;5016054;28;20289;-56
2022/05/15 04:40:06;;;;;;;4.03;2.07;;;;;;;17.03;32.35;98612.16;5016250;28;20395;-57
2022/05/15 04:42:37;;;;;;;7.87;2.83;;;;;;;17.11;32.54;98620.38;5015729;28;20313;-57
2022/05/15 04:45:09;;;;;;;4.40;2.20;;;;;;;17.18;32.67;98629.56;5015636;28;20300;-57
2022/05/15 04:47:40;;;;;;;4.90;2.00;;;;;;;17.13;32.77;98629.03;5015342;28;20296;-57
2022/05/15 04:50:11;;;;;;;9.97;1.93;;;;;;;16.98;30.87;98630.09;5015881;28;20343;-57
2022/05/15 04:52:42;;;;;;;8.80;3.23;;;;;;;16.34;32.13;98535.94;5015684;28;20339;-56
2022/05/15 04:55:15;;;;;;;5.23;3.20;;;;;;;16.84;30.92;98622.28;5015586;28;20386;-59
2022/05/15 04:57:46;;;;;;;3.20;1.97;;;;;;;16.89;31.94;98634.22;5015572;28;20304;-58
2022/05/15 05:00:19;;;;;;;6.67;2.00;;;;;;;16.90;32.49;98627.13;5015947;28;20293;-58
2022/05/15 05:02:50;;;;;;;4.00;2.10;;;;;;;16.88;31.16;98629.06;5015460;28;20285;-58
2022/05/15 05:05:21;;;;;;;5.73;2.53;;;;;;;16.70;32.44;98647.78;5015628;28;20310;-58
2022/05/15 05:07:51;;;;;;;13.47;3.10;;;;;;;16.37;31.65;98650.84;5015792;28;20285;-58
2022/05/15 05:10:24;;;;;;;7.60;2.07;;;;;;;16.18;32.80;98646.78;5015629;28;20618;-58
2022/05/15 05:12:54;;;;;;;5.07;2.07;;;;;;;16.12;31.35;98667.41;5014260;28;20305;-58
2022/05/15 05:15:25;;;;;;;6.87;1.87;;;;;;;16.22;31.17;98673.78;5014226;28;20315;-58
2022/05/15 05:17:56;;;;;;;7.00;2.10;;;;;;;16.26;31.99;98680.56;5013620;28;20568;-58
2022/05/15 05:20:27;;;;;;;5.07;1.80;;;;;;;15.96;31.54;98639.44;5014162;28;20305;-59
2022/05/15 05:22:59;;;;;;;9.80;2.07;;;;;;;16.32;32.26;98680.16;5012883;28;20411;-58
2022/05/15 05:25:32;;;;;;;7.37;3.73;;;;;;;16.43;32.78;98691.81;5014423;28;20320;-58
2022/05/15 05:28:04;;;;;;;3.53;2.10;;;;;;;16.52;31.09;98680.63;5014727;28;20498;-59
2022/05/15 05:30:37;;;;;;;3.47;1.83;;;;;;;16.59;32.12;98679.28;5014511;28;20580;-58
2022/05/15 05:33:09;;;;;;;8.73;2.20;;;;;;;16.77;32.68;98686.00;5013900;28;20603;-58
2022/05/15 05:35:42;;;;;;;2.70;1.90;;;;;;;16.92;31.24;98683.28;5014947;28;20653;-58
2022/05/15 05:38:14;;;;;;;3.50;1.97;;;;;;;16.84;31.55;98686.44;5014832;28;20291;-59
2022/05/15 05:40:47;;;;;;;4.53;2.10;;;;;;;16.77;31.53;98690.41;5013519;28;20289;-58
2022/05/15 05:43:19;;;;;;;7.63;2.07;;;;;;;16.59;30.98;98700.38;5014483;28;20343;-58
2022/05/15 05:45:50;;;;;;;8.00;2.90;;;;;;;16.53;32.69;98700.81;5014664;28;20323;-58
2022/05/15 05:48:22;;;;;;;6.37;2.27;;;;;;;16.58;32.97;98707.44;5014833;28;20284;-58
2022/05/15 05:50:54;;;;;;;4.10;1.90;;;;;;;16.51;32.67;98705.31;5014663;28;20734;-58
2022/05/15 05:53:25;;;;;;;4.73;1.80;;;;;;;16.25;30.83;98689.41;5014761;28;20307;-58
2022/05/15 05:55:58;;;;;;;6.43;2.43;;;;;;;16.18;33.13;98698.66;5014592;28;20320;-58
2022/05/15 05:58:30;;;;;;;4.50;1.93;;;;;;;16.29;32.11;98696.16;5014541;28;20837;-57
2022/05/15 06:01:01;;;;;;;2.73;1.90;;;;;;;16.33;32.35;98702.09;5014441;28;20303;-57
2022/05/15 06:06:22;;;;;;;8.03;3.27;;;;;;;16.45;33.20;98708.34;5013716;28;20301;-57
2022/05/15 06:08:53;;;;;;;3.93;2.33;;;;;;;16.52;33.64;98696.44;5014563;28;21054;-57
2022/05/15 06:11:27;;;;;;;5.03;2.27;;;;;;;16.50;32.39;98709.75;5014375;28;20293;-56
2022/05/15 06:13:58;;;;;;;8.13;2.30;;;;;;;16.55;33.28;98715.56;5014339;28;20299;-56
2022/05/15 06:16:31;;;;;;;3.60;2.00;;;;;;;16.64;32.81;98715.91;5014371;28;20285;-57
2022/05/15 06:19:03;;;;;;;4.70;2.20;;;;;;;16.69;33.14;98704.09;5013979;28;20281;-56
2022/05/15 06:21:34;;;;;;;4.33;2.50;;;;;;;16.76;33.30;98702.75;5013880;28;20343;-57
2022/05/15 06:24:06;;;;;;;3.53;1.87;;;;;;;16.88;31.58;98708.19;5013699;28;20373;-57
2022/05/15 06:26:39;;;;;;;10.00;2.33;;;;;;;16.86;32.13;98710.09;5013822;28;20312;-57
2022/05/15 06:29:11;;;;;;;10.10;2.83;;;;;;;16.89;32.12;98712.50;5013881;28;20281;-57
2022/05/15 06:31:43;;;;;;;8.10;3.43;;;;;;;16.85;32.09;98709.25;5013532;28;20476;-57
2022/05/15 06:34:14;;;;;;;18.17;2.90;;;;;;;16.76;32.09;98710.66;5013920;28;20677;-57
2022/05/15 06:36:46;;;;;;;9.87;3.40;;;;;;;16.70;32.10;98716.34;5013475;28;20277;-58
2022/05/15 06:39:18;;;;;;;4.47;2.50;;;;;;;16.69;32.39;98719.91;5014517;28;20910;-56
2022/05/15 06:41:56;;;;;;;4.90;2.20;;;;;;;16.75;32.32;98730.09;5013348;28;20296;-56
2022/05/15 06:44:28;;;;;;;5.57;2.30;;;;;;;16.78;33.85;98714.06;5013424;28;20284;-58
2022/05/15 06:47:02;;;;;;;8.20;2.20;;;;;;;16.76;32.53;98726.47;5013635;28;20297;-57
2022/05/15 06:49:34;;;;;;;7.03;2.40;;;;;;;16.64;32.72;98716.75;5013613;28;20281;-57
2022/05/15 06:52:06;;;;;;;10.87;2.97;;;;;;;16.62;33.16;98729.19;5013089;28;20566;-58
2022/05/15 06:54:38;;;;;;;9.93;2.53;;;;;;;16.54;32.09;98731.47;5013243;28;20324;-57
2022/05/15 07:00:00;;;;;;;4.33;2.30;;;;;;;16.34;33.10;98725.69;5013266;28;20281;-57
2022/05/15 07:02:32;;;;;;;7.47;2.30;;;;;;;16.32;33.49;98726.75;5012307;28;20293;-57
2022/05/15 07:05:08;;;;;;;6.77;2.33;;;;;;;16.26;33.87;98728.00;5013245;28;20312;-57
2022/05/15 07:07:40;;;;;;;8.57;2.60;;;;;;;16.18;34.22;98719.75;5013160;28;20313;-56
2022/05/15 07:10:12;;;;;;;5.50;2.60;;;;;;;16.26;33.93;98717.47;5013404;28;20312;-57
2022/05/15 07:12:46;;;;;;;5.10;2.10;;;;;;;16.31;32.43;98730.34;5013022;28;20361;-56
2022/05/15 07:15:18;;;;;;;5.97;2.30;;;;;;;16.30;33.54;98733.91;5013238;28;20372;-56
2022/05/15 07:17:50;;;;;;;5.47;2.20;;;;;;;16.35;35.00;98732.69;5013057;28;20280;-57
2022/05/15 07:20:24;;;;;;;6.23;2.63;;;;;;;16.35;33.51;98730.06;5013144;28;20281;-57
2022/05/15 07:22:56;;;;;;;7.67;3.27;;;;;;;16.34;34.85;98730.97;5013320;28;20319;-56
2022/05/15 07:25:28;;;;;;;8.90;2.63;;;;;;;16.24;33.70;98735.16;5013115;28;20312;-57
2022/05/15 07:28:01;;;;;;;6.30;2.47;;;;;;;16.24;34.25;98735.16;5013151;28;20371;-56
2022/05/15 07:30:33;;;;;;;9.10;2.87;;;;;;;16.29;35.48;98738.34;5012903;28;20495;-56
2022/05/15 07:33:04;;;;;;;8.90;4.50;;;;;;;16.40;36.18;98729.75;5012823;28;20281;-56
2022/05/15 07:35:37;;;;;;;5.77;2.50;;;;;;;16.43;35.91;98734.81;5013245;28;20292;-56
2022/05/15 07:38:09;;;;;;;8.43;2.50;;;;;;;16.39;35.55;98734.16;5013112;28;20289;-56
2022/05/15 07:40:41;;;;;;;7.03;2.90;;;;;;;16.25;34.33;98741.25;5013042;28;20291;-56
2022/05/15 07:43:17;;;;;;;6.27;2.73;;;;;;;16.02;34.18;98734.81;5013079;28;20293;-57
2022/05/15 07:45:48;;;;;;;6.03;2.70;;;;;;;15.80;33.48;98738.81;5012021;28;20673;-56
2022/05/15 07:48:20;;;;;;;9.43;3.07;;;;;;;15.64;33.52;98740.66;5012686;28;20311;-56
2022/05/15 07:50:52;;;;;;;4.37;2.50;;;;;;;15.58;34.49;98751.59;5013096;28;20320;-56
2022/05/15 07:53:24;;;;;;;7.20;2.70;;;;;;;15.49;34.77;98755.59;5013374;28;20343;-56
2022/05/15 07:55:59;;;;;;;12.97;2.77;;;;;;;15.29;34.48;98767.31;5017010;28;20390;-55
2022/05/15 07:58:32;;;;;;;7.87;2.80;;;;;;;15.04;35.08;98768.78;5016896;28;20312;-55
2022/05/15 08:01:05;;;;;;;7.03;3.00;;;;;;;14.98;34.94;98745.47;5016342;28;20289;-58
2022/05/15 08:03:39;;;;;;;7.90;2.93;;;;;;;14.96;35.87;98776.28;5016176;28;20348;-57
2022/05/15 08:09:00;;;;;;;6.75;2.95;;;;;;;15.00;35.82;98779.56;5016385;28;20303;-57
2022/05/15 08:11:32;;;;;;;9.00;3.37;;;;;;;14.96;36.52;98771.00;5015872;28;20073;-57
2022/05/15 08:14:08;;;;;;;7.23;3.20;;;;;;;15.09;37.35;98777.25;5015920;28;20293;-58
2022/05/15 08:16:40;;;;;;;5.90;2.93;;;;;;;14.94;36.94;98761.50;5016273;28;20281;-57
2022/05/15 08:24:48;;;;;;;6.60;2.57;;;;;;;15.07;37.69;98800.16;5015170;28;20301;-57
2022/05/15 08:27:20;;;;;;;7.37;3.00;;;;;;;15.04;38.21;98805.59;5015875;28;20301;-56
2022/05/15 08:29:53;;;;;;;8.80;2.97;;;;;;;15.07;38.36;98809.84;5015888;28;20363;-57
2022/05/15 08:32:25;;;;;;;10.27;3.00;;;;;;;14.99;37.93;98807.66;5016066;28;20280;-57
2022/05/15 08:34:57;;;;;;;7.03;2.90;;;;;;;14.93;38.81;98808.00;5016180;28;20448;-56
2022/05/15 08:37:29;;;;;;;6.33;3.07;;;;;;;14.89;39.15;98822.25;5015934;28;20304;-57
2022/05/15 08:40:01;;;;;;;11.43;3.10;;;;;;;14.39;39.67;98757.59;5015727;28;20280;-57
2022/05/15 08:42:40;;;;;;;8.33;3.17;;;;;;;14.71;39.50;98825.94;5015819;28;20365;-57
2022/05/15 08:45:17;;;;;;;8.80;3.53;;;;;;;14.62;39.32;98825.50;5015693;28;20277;-56
2022/05/15 08:47:58;;;;;;;12.87;3.80;;;;;;;14.50;39.87;98834.03;5015767;28;20050;-56
2022/05/15 08:50:31;;;;;;;8.13;3.10;;;;;;;14.43;40.26;98835.34;5015634;28;20289;-55
2022/05/15 08:53:06;;;;;;;10.23;3.00;;;;;;;14.37;40.90;98846.16;5015270;28;20618;-57
2022/05/15 08:55:42;;;;;;;8.03;3.30;;;;;;;14.30;40.52;98845.63;5014170;28;20296;-57
2022/05/15 08:58:19;;;;;;;7.10;3.17;;;;;;;14.22;40.78;98853.94;5014948;28;20285;-57
2022/05/15 09:00:54;;;;;;;8.20;3.30;;;;;;;14.20;41.33;98853.19;5015287;28;20323;-57
2022/05/15 09:03:33;;;;;;;16.27;5.47;;;;;;;14.12;40.88;98852.75;5015773;28;20448;-57
2022/05/15 09:06:08;;;;;;;30.20;11.23;;;;;;;14.07;41.81;98859.19;5014713;28;20285;-57
2022/05/15 09:08:57;;;;;;;12.35;3.10;;;;;;;14.03;41.74;98874.25;5015143;28;20081;-58
2022/05/15 09:11:45;;;;;;;7.40;2.92;;;;;;;13.91;42.02;98877.53;5015464;28;20080;-57
2022/05/15 09:14:22;;;;;;;9.32;3.60;;;;;;;13.78;42.86;98874.69;5015269;28;20046;-57
2022/05/15 09:16:59;;;;;;;6.80;3.88;;;;;;;13.45;43.12;98877.25;5015348;28;20336;-57
2022/05/15 09:19:31;;;;;;;13.10;4.57;;;;;;;13.21;44.35;98874.91;5015126;28;20531;-58
2022/05/15 09:22:03;;;;;;;8.57;3.80;;;;;;;12.47;44.96;98799.78;5015201;28;20277;-58
2022/05/15 09:24:39;;;;;;;12.13;4.00;;;;;;;12.75;46.08;98882.34;5014770;28;20053;-57
2022/05/15 09:27:16;;;;;;;10.60;4.20;;;;;;;12.59;46.18;98891.84;5013918;28;20116;-57
2022/05/15 09:29:55;;;;;;;10.38;3.60;;;;;;;12.40;46.99;98887.44;5014853;28;20048;-57
2022/05/15 09:32:38;;;;;;;7.60;3.63;;;;;;;12.32;47.14;98889.56;5015324;28;20060;-57
2022/05/15 09:35:29;;;;;;;9.93;4.43;;;;;;;12.22;47.31;98890.91;5014768;28;20347;-59
2022/05/15 09:43:54;;;;;;;11.07;5.60;;;;;;;11.89;48.91;98912.44;5014672;28;20096;-57
2022/05/15 09:46:27;;;;;;;13.85;5.20;;;;;;;11.81;48.81;98930.22;5014719;28;20089;-57
2022/05/15 09:49:03;;;;;;;16.10;5.57;;;;;;;11.72;49.38;98909.66;5014548;28;20049;-57
2022/05/15 09:51:46;;;;;;;10.88;4.53;;;;;;;11.63;49.38;98922.22;5014380;28;20188;-57
2022/05/15 09:54:32;;;;;;;8.90;4.20;;;;;;;11.55;50.02;98913.81;5013906;28;20116;-57
2022/05/15 09:57:17;;;;;;;9.68;3.85;;;;;;;11.52;49.93;98919.19;5014530;28;20386;-57
2022/05/15 09:59:59;;;;;;;7.82;3.45;;;;;;;11.40;50.54;98915.31;5014462;28;20092;-57
2022/05/15 10:02:48;;;;;;;15.80;3.97;;;;;;;11.35;50.60;98926.88;5013861;28;20085;-57
2022/05/15 10:05:26;;;;;;;10.73;4.03;;;;;;;11.28;50.94;98925.44;5014238;28;20063;-57
2022/05/15 10:08:02;;;;;;;12.55;3.88;;;;;;;11.16;51.33;98932.88;5014372;28;20145;-57
2022/05/15 10:10:37;;;;;;;14.98;3.90;;;;;;;11.09;51.80;98936.63;5014366;28;20049;-57
2022/05/15 10:13:13;;;;;;;15.05;6.47;;;;;;;10.77;52.15;98904.75;5013797;28;20048;-57
2022/05/15 10:15:49;;;;;;;16.48;7.25;;;;;;;10.95;52.76;98939.78;5013462;28;20050;-56
2022/05/15 10:18:29;;;;;;;11.85;5.05;;;;;;;10.76;53.18;98934.44;5014116;28;20157;-55
2022/05/15 10:21:03;;;;;;;13.93;4.50;;;;;;;10.29;53.32;98877.00;5013654;28;20061;-55
2022/05/15 10:23:45;;;;;;;12.27;4.47;;;;;;;10.74;53.64;98954.53;5012981;28;20271;-56
2022/05/15 10:26:23;;;;;;;11.73;4.15;;;;;;;10.68;53.84;98957.34;5013397;28;20117;-55
2022/05/15 10:29:00;;;;;;;8.55;3.70;;;;;;;10.63;54.45;98961.91;5014252;28;20124;-56
2022/05/15 10:31:39;;;;;;;8.95;4.10;;;;;;;10.55;54.76;98971.78;5012415;28;20296;-53
2022/05/15 10:34:14;;;;;;;12.30;3.95;;;;;;;10.49;55.01;98969.41;5013166;28;20084;-56
2022/05/15 10:37:01;;;;;;;15.32;4.13;;;;;;;10.29;55.10;98939.66;5013973;28;20054;-55
2022/05/15 10:39:58;;;;;;;13.45;4.57;;;;;;;10.47;55.34;98979.06;5014153;28;20062;-56
2022/05/15 10:42:39;;;;;;;13.85;5.00;;;;;;;10.43;55.42;98993.97;5013779;28;20162;-55
2022/05/15 10:45:21;;;;;;;11.85;4.60;;;;;;;10.42;55.54;99007.09;5013536;28;20070;-55
2022/05/15 10:48:06;;;;;;;10.65;4.10;;;;;;;10.32;55.81;99017.88;5013944;28;20337;-56
2022/05/15 10:50:50;;;;;;;12.82;4.63;;;;;;;10.21;56.51;99025.22;5013795;28;20069;-56
2022/05/15 10:59:47;;;;;;;10.13;5.00;;;;;;;10.11;57.69;99034.25;5013604;28;20049;-56
2022/05/15 11:02:45;;;;;;;16.02;5.32;;;;;;;10.06;57.69;99030.94;5013227;28;20113;-56
2022/05/15 11:05:26;;;;;;;17.92;4.78;;;;;;;10.01;58.12;99048.50;5013568;28;20065;-55
2022/05/15 11:08:09;;;;;;;11.05;4.82;;;;;;;9.98;57.80;99043.38;5013043;28;20046;-55
2022/05/15 11:10:50;;;;;;;14.40;5.15;;;;;;;9.96;58.45;99051.28;5013607;28;20240;-56
2022/05/15 11:13:26;;;;;;;13.23;4.72;;;;;;;9.92;58.31;99047.91;5013262;28;20054;-56
2022/05/15 11:16:05;;;;;;;14.20;4.93;;;;;;;9.88;58.99;99042.84;5013604;28;20116;-55
2022/05/15 11:19:18;;;;;;;18.30;7.05;;;;;;;9.85;59.24;99059.44;5013058;28;20058;-56
2022/05/15 11:21:56;;;;;;;22.02;6.43;;;;;;;9.79;59.12;99059.66;5000465;28;20088;-56
2022/05/15 11:24:36;;;;;;;15.20;5.25;;;;;;;9.78;59.33;99052.72;5013947;28;20092;-56
2022/05/15 11:27:17;;;;;;;11.50;4.90;;;;;;;9.71;59.61;99072.09;5013336;28;20050;-56
2022/05/15 11:29:51;;;;;;;22.25;4.97;;;;;;;9.70;59.38;99075.59;5015924;28;20093;-55
2022/05/15 11:32:35;;;;;;;11.52;4.93;;;;;;;9.10;59.97;98980.16;5017450;28;20061;-55
2022/05/15 11:35:15;;;;;;;14.70;4.93;;;;;;;9.58;59.87;99060.34;5017119;28;20085;-56
2022/05/15 11:37:55;;;;;;;14.40;5.05;;;;;;;9.55;60.34;99055.22;5017266;28;20060;-56
2022/05/15 11:40:35;;;;;;;14.85;4.70;;;;;;;9.56;60.42;99062.13;5017161;28;20046;-56
2022/05/15 11:43:38;;;;;;;13.07;4.75;;;;;;;9.54;60.56;99059.59;5017263;28;20066;-55
2022/05/15 11:46:11;;;;;;;15.32;5.10;;;;;;;9.41;60.64;99048.69;5010102;28;20071;-56
2022/05/15 11:48:59;;;;;;;13.40;5.15;;;;;;;9.44;60.51;99053.81;5016877;28;20156;-56
2022/05/15 11:51:34;;;;;;;13.52;4.95;;;;;;;9.32;60.56;99038.53;5016988;28;20077;-56
2022/05/15 11:54:07;;;;;;;13.60;4.93;;;;;;;9.43;60.82;99072.94;5016966;28;20104;-57
2022/05/15 11:56:41;;;;;;;12.30;4.55;;;;;;;9.31;60.81;99052.50;5017172;28;20077;-57
2022/05/15 11:59:25;;;;;;;11.23;4.53;;;;;;;9.34;61.17;99057.59;5016557;28;20125;-54
2022/05/15 12:01:57;;;;;;;22.42;5.20;;;;;;;9.35;61.13;99069.72;5016653;28;20447;-56
2022/05/15 12:05:00;;;;;;;12.95;4.13;;;;;;;9.39;61.04;99066.13;5016983;28;20442;-55
2022/05/15 12:07:48;;;;;;;17.65;5.13;;;;;;;9.37;61.01;99062.72;5016514;28;20053;-56
2022/05/15 12:10:39;;;;;;;11.18;4.30;;;;;;;9.35;61.19;99056.69;5016835;28;20058;-56
2022/05/15 12:13:12;;;;;;;12.70;4.70;;;;;;;9.33;60.88;99058.47;5016636;28;20087;-56
2022/05/15 12:15:48;;;;;;;13.95;4.80;;;;;;;9.32;61.28;99059.41;5016749;28;20041;-56
2022/05/15 12:18:27;;;;;;;13.95;4.85;;;;;;;9.19;60.82;99055.47;5016530;28;20530;-56
2022/05/15 12:20:58;;;;;;;14.45;5.07;;;;;;;9.04;60.84;99039.38;5016709;28;20064;-57
2022/05/15 12:23:35;;;;;;;11.75;4.50;;;;;;;9.26;60.59;99075.22;5016051;28;20268;-54
2022/05/15 12:26:20;;;;;;;17.77;6.00;;;;;;;8.67;60.59;98968.44;5015935;28;20065;-56
2022/05/15 12:29:00;;;;;;;23.85;5.65;;;;;;;9.23;60.61;99064.88;5015589;28;20085;-56
2022/05/15 12:31:38;;;;;;;13.68;4.43;;;;;;;9.10;60.16;99040.09;5016257;28;20387;-57
2022/05/15 12:34:26;;;;;;;20.08;4.75;;;;;;;9.31;59.95;99073.34;5016317;28;20054;-56